sensor_id;sensor_type;location;lat;lon;timestamp;pressure;altitude;pressure_sealevel;temperature;humidity
19210;BME280;9738;51.654;14.238;2023-02-10T00:01:12;102184.56;;;-1.45;80.68
19210;BME280;9738;51.654;14.238;2023-02-10T00:03:39;102184.56;;;-1.45;80.56
19210;BME280;9738;51.654;14.238;2023-02-10T00:06:05;102182.81;;;-1.44;80.41
19210;BME280;9738;51.654;14.238;2023-02-10T00:08:31;102182.84;;;-1.47;80.52
19210;BME280;9738;51.654;14.238;2023-02-10T00:11:00;102183.72;;;-1.47;80.68
19210;BME280;9738;51.654;14.238;2023-02-10T00:13:27;102182.00;;;-1.48;80.86
19210;BME280;9738;51.654;14.238;2023-02-10T00:15:53;102183.72;;;-1.47;80.52
19210;BME280;9738;51.654;14.238;2023-02-10T00:18:20;102174.97;;;-1.46;80.87
19210;BME280;9738;51.654;14.238;2023-02-10T00:20:46;102181.91;;;-1.43;80.35
19210;BME280;9738;51.654;14.238;2023-02-10T00:23:11;102175.81;;;-1.44;80.50
19210;BME280;9738;51.654;14.238;2023-02-10T00:25:38;102165.28;;;-1.42;80.49
19210;BME280;9738;51.654;14.238;2023-02-10T00:28:04;102169.66;;;-1.43;80.21
19210;BME280;9738;51.654;14.238;2023-02-10T00:30:30;102168.81;;;-1.43;80.31
19210;BME280;9738;51.654;14.238;2023-02-10T00:32:57;102166.22;;;-1.45;80.51
19210;BME280;9738;51.654;14.238;2023-02-10T00:35:23;102179.44;;;-1.51;80.96
19210;BME280;9738;51.654;14.238;2023-02-10T00:37:48;102177.69;;;-1.50;81.00
19210;BME280;9738;51.654;14.238;2023-02-10T00:40:15;102177.81;;;-1.56;81.57
19210;BME280;9738;51.654;14.238;2023-02-10T00:42:41;102185.72;;;-1.59;81.57
19210;BME280;9738;51.654;14.238;2023-02-10T00:45:07;102188.25;;;-1.55;81.66
19210;BME280;9738;51.654;14.238;2023-02-10T00:47:33;102197.09;;;-1.60;81.66
19210;BME280;9738;51.654;14.238;2023-02-10T00:49:59;102202.41;;;-1.64;81.92
19210;BME280;9738;51.654;14.238;2023-02-10T00:52:25;102197.28;;;-1.70;82.18
19210;BME280;9738;51.654;14.238;2023-02-10T00:54:51;102199.09;;;-1.72;82.64
19210;BME280;9738;51.654;14.238;2023-02-10T00:57:17;102201.72;;;-1.72;82.83
19210;BME280;9738;51.654;14.238;2023-02-10T00:59:43;102201.72;;;-1.72;83.27
19210;BME280;9738;51.654;14.238;2023-02-10T01:02:09;102200.78;;;-1.69;83.62
19210;BME280;9738;51.654;14.238;2023-02-10T01:04:35;102201.56;;;-1.66;83.86
19210;BME280;9738;51.654;14.238;2023-02-10T01:07:01;102198.78;;;-1.56;83.55
19210;BME280;9738;51.654;14.238;2023-02-10T01:09:28;102201.44;;;-1.58;83.65
19210;BME280;9738;51.654;14.238;2023-02-10T01:11:55;102204.00;;;-1.56;83.33
19210;BME280;9738;51.654;14.238;2023-02-10T01:14:21;102201.44;;;-1.58;83.78
19210;BME280;9738;51.654;14.238;2023-02-10T01:16:47;102211.78;;;-1.52;83.18
19210;BME280;9738;51.654;14.238;2023-02-10T01:19:13;102210.03;;;-1.51;83.22
19210;BME280;9738;51.654;14.238;2023-02-10T01:21:41;102208.28;;;-1.51;83.09
19210;BME280;9738;51.654;14.238;2023-02-10T01:24:09;102202.13;;;-1.50;83.17
19210;BME280;9738;51.654;14.238;2023-02-10T01:26:34;102201.97;;;-1.42;83.33
19210;BME280;9738;51.654;14.238;2023-02-10T01:29:00;102189.69;;;-1.40;83.02
19210;BME280;9738;51.654;14.238;2023-02-10T01:31:27;102193.03;;;-1.32;82.84
19210;BME280;9738;51.654;14.238;2023-02-10T01:33:54;102181.53;;;-1.25;82.27
19210;BME280;9738;51.654;14.238;2023-02-10T01:36:22;102188.44;;;-1.21;82.34
19210;BME280;9738;51.654;14.238;2023-02-10T01:38:49;102187.44;;;-1.17;81.49
19210;BME280;9738;51.654;14.238;2023-02-10T01:41:18;102184.00;;;-1.19;81.69
19210;BME280;9738;51.654;14.238;2023-02-10T01:46:21;102185.59;;;-1.12;81.67
19210;BME280;9738;51.654;14.238;2023-02-10T01:48:47;102176.91;;;-1.14;81.09
19210;BME280;9738;51.654;14.238;2023-02-10T01:51:13;102169.13;;;-1.18;81.14
19210;BME280;9738;51.654;14.238;2023-02-10T01:53:41;102172.63;;;-1.18;81.60
19210;BME280;9738;51.654;14.238;2023-02-10T01:56:10;102175.09;;;-1.12;81.53
19210;BME280;9738;51.654;14.238;2023-02-10T01:58:37;102172.53;;;-1.13;81.59
19210;BME280;9738;51.654;14.238;2023-02-10T02:01:07;102178.53;;;-1.10;81.21
19210;BME280;9738;51.654;14.238;2023-02-10T02:03:33;102176.78;;;-1.07;81.19
19210;BME280;9738;51.654;14.238;2023-02-10T02:05:59;102186.28;;;-1.03;81.29
19210;BME280;9738;51.654;14.238;2023-02-10T02:08:28;102189.75;;;-1.01;80.99
19210;BME280;9738;51.654;14.238;2023-02-10T02:16:43;102187.84;;;-0.95;80.70
19210;BME280;9738;51.654;14.238;2023-02-10T02:19:54;102185.97;;;-0.90;80.99
19210;BME280;9738;51.654;14.238;2023-02-10T02:31:10;102206.56;;;-0.73;80.16
19210;BME280;9738;51.654;14.238;2023-02-10T02:33:58;102208.28;;;-0.72;80.06
19210;BME280;9738;51.654;14.238;2023-02-10T02:36:34;102207.22;;;-0.65;79.89
19210;BME280;9738;51.654;14.238;2023-02-10T02:39:04;102212.44;;;-0.62;79.77
19210;BME280;9738;51.654;14.238;2023-02-10T02:41:32;102216.53;;;-0.51;79.46
19210;BME280;9738;51.654;14.238;2023-02-10T02:43:59;102210.31;;;-0.47;79.81
19210;BME280;9738;51.654;14.238;2023-02-10T02:49:26;102219.72;;;-0.37;80.10
19210;BME280;9738;51.654;14.238;2023-02-10T02:52:00;102223.97;;;-0.33;79.68
19210;BME280;9738;51.654;14.238;2023-02-10T02:54:40;102219.66;;;-0.36;79.59
19210;BME280;9738;51.654;14.238;2023-02-10T02:57:15;102226.69;;;-0.36;79.67
19210;BME280;9738;51.654;14.238;2023-02-10T02:59:49;102225.03;;;-0.40;79.76
19210;BME280;9738;51.654;14.238;2023-02-10T03:02:17;102224.25;;;-0.44;80.23
19210;BME280;9738;51.654;14.238;2023-02-10T03:04:45;102227.75;;;-0.45;80.78
19210;BME280;9738;51.654;14.238;2023-02-10T03:07:12;102235.63;;;-0.43;82.63
19210;BME280;9738;51.654;14.238;2023-02-10T03:09:37;102234.63;;;-0.39;82.94
19210;BME280;9738;51.654;14.238;2023-02-10T03:12:04;102237.22;;;-0.38;84.31
19210;BME280;9738;51.654;14.238;2023-02-10T03:14:30;102238.16;;;-0.40;87.09
19210;BME280;9738;51.654;14.238;2023-02-10T03:16:56;102241.72;;;-0.43;89.43
19210;BME280;9738;51.654;14.238;2023-02-10T03:19:23;102240.44;;;-0.64;97.37
19210;BME280;9738;51.654;14.238;2023-02-10T03:21:48;102240.75;;;-0.76;100.00
19210;BME280;9738;51.654;14.238;2023-02-10T03:24:15;102239.00;;;-0.77;100.00
19210;BME280;9738;51.654;14.238;2023-02-10T03:26:43;102234.69;;;-0.79;100.00
19210;BME280;9738;51.654;14.238;2023-02-10T03:29:10;102235.78;;;-0.88;100.00
19210;BME280;9738;51.654;14.238;2023-02-10T03:31:36;102235.97;;;-0.97;100.00
19210;BME280;9738;51.654;14.238;2023-02-10T03:34:03;102227.34;;;-1.02;100.00
19210;BME280;9738;51.654;14.238;2023-02-10T03:36:29;102229.13;;;-1.04;100.00
19210;BME280;9738;51.654;14.238;2023-02-10T03:38:54;102231.84;;;-1.09;100.00
19210;BME280;9738;51.654;14.238;2023-02-10T03:41:21;102232.00;;;-1.17;100.00
19210;BME280;9738;51.654;14.238;2023-02-10T03:43:46;102231.19;;;-1.19;100.00
19210;BME280;9738;51.654;14.238;2023-02-10T03:46:12;102239.84;;;-1.15;100.00
19210;BME280;9738;51.654;14.238;2023-02-10T03:48:39;102240.66;;;-1.12;100.00
19210;BME280;9738;51.654;14.238;2023-02-10T03:51:06;102241.59;;;-1.16;100.00
19210;BME280;9738;51.654;14.238;2023-02-10T03:53:33;102245.06;;;-1.14;100.00
19210;BME280;9738;51.654;14.238;2023-02-10T03:56:00;102244.09;;;-1.10;100.00
19210;BME280;9738;51.654;14.238;2023-02-10T03:58:26;102239.69;;;-1.07;100.00
19210;BME280;9738;51.654;14.238;2023-02-10T04:00:52;102244.75;;;-0.98;100.00
19210;BME280;9738;51.654;14.238;2023-02-10T04:03:18;102239.50;;;-0.98;100.00
19210;BME280;9738;51.654;14.238;2023-02-10T04:05:45;102235.00;;;-0.93;100.00
19210;BME280;9738;51.654;14.238;2023-02-10T04:08:11;102237.63;;;-0.93;100.00
19210;BME280;9738;51.654;14.238;2023-02-10T04:10:37;102240.09;;;-0.86;100.00
19210;BME280;9738;51.654;14.238;2023-02-10T04:13:03;102247.31;;;-0.95;100.00
19210;BME280;9738;51.654;14.238;2023-02-10T04:15:29;102252.50;;;-0.94;100.00
19210;BME280;9738;51.654;14.238;2023-02-10T04:17:55;102255.97;;;-0.92;100.00
19210;BME280;9738;51.654;14.238;2023-02-10T04:20:23;102255.81;;;-0.86;100.00
19210;BME280;9738;51.654;14.238;2023-02-10T04:22:49;102240.91;;;-0.82;100.00
19210;BME280;9738;51.654;14.238;2023-02-10T04:25:16;102251.53;;;-0.88;100.00
19210;BME280;9738;51.654;14.238;2023-02-10T04:27:41;102249.09;;;-0.97;100.00
19210;BME280;9738;51.654;14.238;2023-02-10T04:30:08;102247.31;;;-0.97;100.00
19210;BME280;9738;51.654;14.238;2023-02-10T04:32:34;102255.22;;;-0.98;100.00
19210;BME280;9738;51.654;14.238;2023-02-10T04:35:01;102256.13;;;-0.99;100.00
19210;BME280;9738;51.654;14.238;2023-02-10T04:37:26;102263.19;;;-1.01;100.00
19210;BME280;9738;51.654;14.238;2023-02-10T04:39:53;102258.81;;;-1.02;100.00
19210;BME280;9738;51.654;14.238;2023-02-10T04:42:18;102262.28;;;-1.00;100.00
19210;BME280;9738;51.654;14.238;2023-02-10T04:44:44;102257.13;;;-1.05;100.00
19210;BME280;9738;51.654;14.238;2023-02-10T04:47:11;102261.47;;;-1.04;100.00
19210;BME280;9738;51.654;14.238;2023-02-10T04:49:36;102269.38;;;-1.05;100.00
19210;BME280;9738;51.654;14.238;2023-02-10T04:52:02;102271.13;;;-1.06;100.00
19210;BME280;9738;51.654;14.238;2023-02-10T04:54:28;102278.13;;;-1.06;100.00
19210;BME280;9738;51.654;14.238;2023-02-10T04:56:54;102278.13;;;-1.06;100.00
19210;BME280;9738;51.654;14.238;2023-02-10T04:59:20;102286.00;;;-1.06;100.00
19210;BME280;9738;51.654;14.238;2023-02-10T05:01:46;102271.31;;;-1.14;100.00
19210;BME280;9738;51.654;14.238;2023-02-10T05:04:12;102278.31;;;-1.16;100.00
19210;BME280;9738;51.654;14.238;2023-02-10T05:06:37;102280.94;;;-1.14;100.00
19210;BME280;9738;51.654;14.238;2023-02-10T05:09:04;102281.78;;;-1.14;100.00
19210;BME280;9738;51.654;14.238;2023-02-10T05:11:30;102278.34;;;-1.17;100.00
19210;BME280;9738;51.654;14.238;2023-02-10T05:13:55;102287.13;;;-1.18;100.00
19210;BME280;9738;51.654;14.238;2023-02-10T05:16:22;102281.78;;;-1.14;100.00
19210;BME280;9738;51.654;14.238;2023-02-10T05:18:47;102286.91;;;-1.07;100.00
19210;BME280;9738;51.654;14.238;2023-02-10T05:21:13;102280.69;;;-1.03;100.00
19210;BME280;9738;51.654;14.238;2023-02-10T05:23:41;102285.97;;;-1.05;100.00
19210;BME280;9738;51.654;14.238;2023-02-10T05:26:07;102290.19;;;-0.98;100.00
19210;BME280;9738;51.654;14.238;2023-02-10T05:28:33;102290.97;;;-0.93;100.00
19210;BME280;9738;51.654;14.238;2023-02-10T05:30:59;102296.16;;;-0.91;100.00
19210;BME280;9738;51.654;14.238;2023-02-10T05:33:25;102294.53;;;-0.95;100.00
19210;BME280;9738;51.654;14.238;2023-02-10T05:35:50;102303.22;;;-0.93;100.00
19210;BME280;9738;51.654;14.238;2023-02-10T05:38:17;102300.72;;;-0.99;100.00
19210;BME280;9738;51.654;14.238;2023-02-10T05:40:42;102308.63;;;-1.02;100.00
19210;BME280;9738;51.654;14.238;2023-02-10T05:43:08;102302.63;;;-1.07;100.00
19210;BME280;9738;51.654;14.238;2023-02-10T05:45:36;102313.06;;;-1.04;100.00
19210;BME280;9738;51.654;14.238;2023-02-10T05:48:02;102308.63;;;-1.02;100.00
19210;BME280;9738;51.654;14.238;2023-02-10T05:50:27;102315.78;;;-1.11;100.00
19210;BME280;9738;51.654;14.238;2023-02-10T05:52:55;102315.00;;;-1.16;100.00
19210;BME280;9738;51.654;14.238;2023-02-10T05:55:21;102310.63;;;-1.15;100.00
19210;BME280;9738;51.654;14.238;2023-02-10T05:57:47;102316.69;;;-1.12;100.00
19210;BME280;9738;51.654;14.238;2023-02-10T06:00:14;102321.97;;;-1.13;100.00
19210;BME280;9738;51.654;14.238;2023-02-10T06:02:40;102313.25;;;-1.14;100.00
19210;BME280;9738;51.654;14.238;2023-02-10T06:05:05;102316.75;;;-1.15;100.00
19210;BME280;9738;51.654;14.238;2023-02-10T06:07:32;102312.59;;;-1.25;100.00
19210;BME280;9738;51.654;14.238;2023-02-10T06:09:58;102317.94;;;-1.31;100.00
19210;BME280;9738;51.654;14.238;2023-02-10T06:12:23;102322.25;;;-1.28;100.00
19210;BME280;9738;51.654;14.238;2023-02-10T06:14:50;102317.06;;;-1.30;100.00
19210;BME280;9738;51.654;14.238;2023-02-10T06:17:15;102314.44;;;-1.30;100.00
19210;BME280;9738;51.654;14.238;2023-02-10T06:19:41;102318.84;;;-1.32;100.00
19210;BME280;9738;51.654;14.238;2023-02-10T06:22:09;102318.78;;;-1.29;100.00
19210;BME280;9738;51.654;14.238;2023-02-10T06:24:35;102316.94;;;-1.24;100.00
19210;BME280;9738;51.654;14.238;2023-02-10T06:27:01;102317.00;;;-1.28;100.00
19210;BME280;9738;51.654;14.238;2023-02-10T06:29:27;102319.66;;;-1.30;100.00
19210;BME280;9738;51.654;14.238;2023-02-10T06:31:53;102326.63;;;-1.29;100.00
19210;BME280;9738;51.654;14.238;2023-02-10T06:34:19;102330.13;;;-1.28;100.00
19210;BME280;9738;51.654;14.238;2023-02-10T06:36:45;102340.53;;;-1.24;100.00
19210;BME280;9738;51.654;14.238;2023-02-10T06:39:11;102338.69;;;-1.19;100.00
19210;BME280;9738;51.654;14.238;2023-02-10T06:41:36;102336.94;;;-1.18;100.00
19210;BME280;9738;51.654;14.238;2023-02-10T06:44:03;102341.38;;;-1.23;100.00
19210;BME280;9738;51.654;14.238;2023-02-10T06:46:29;102349.22;;;-1.22;100.00
19210;BME280;9738;51.654;14.238;2023-02-10T06:48:55;102343.91;;;-1.17;100.00
19210;BME280;9738;51.654;14.238;2023-02-10T06:51:21;102342.22;;;-1.21;100.00
19210;BME280;9738;51.654;14.238;2023-02-10T06:53:47;102336.84;;;-1.14;100.00
19210;BME280;9738;51.654;14.238;2023-02-10T06:56:13;102329.72;;;-1.07;100.00
19210;BME280;9738;51.654;14.238;2023-02-10T06:58:39;102333.31;;;-1.13;100.00
19210;BME280;9738;51.654;14.238;2023-02-10T07:01:11;102335.09;;;-1.15;100.00
19210;BME280;9738;51.654;14.238;2023-02-10T07:03:37;102337.72;;;-1.13;100.00
19210;BME280;9738;51.654;14.238;2023-02-10T07:06:03;102343.66;;;-1.05;100.00
19210;BME280;9738;51.654;14.238;2023-02-10T07:08:29;102334.16;;;-1.11;100.00
19210;BME280;9738;51.654;14.238;2023-02-10T07:10:55;102330.59;;;-1.06;100.00
19210;BME280;9738;51.654;14.238;2023-02-10T07:13:22;102336.59;;;-1.01;100.00
19210;BME280;9738;51.654;14.238;2023-02-10T07:15:47;102344.34;;;-0.95;100.00
19210;BME280;9738;51.654;14.238;2023-02-10T07:18:13;102350.28;;;-0.87;100.00
19210;BME280;9738;51.654;14.238;2023-02-10T07:20:40;102353.63;;;-0.79;100.00
19210;BME280;9738;51.654;14.238;2023-02-10T07:23:05;102354.31;;;-0.69;100.00
19210;BME280;9738;51.654;14.238;2023-02-10T07:25:31;102354.19;;;-0.65;100.00
19210;BME280;9738;51.654;14.238;2023-02-10T07:27:58;102352.31;;;-0.60;100.00
19210;BME280;9738;51.654;14.238;2023-02-10T07:30:24;102355.72;;;-0.55;100.00
19210;BME280;9738;51.654;14.238;2023-02-10T07:32:50;102356.50;;;-0.51;100.00
19210;BME280;9738;51.654;14.238;2023-02-10T07:35:17;102365.97;;;-0.42;100.00
19210;BME280;9738;51.654;14.238;2023-02-10T07:37:42;102369.34;;;-0.37;100.00
19210;BME280;9738;51.654;14.238;2023-02-10T07:40:09;102371.69;;;-0.25;100.00
19210;BME280;9738;51.654;14.238;2023-02-10T07:42:35;102376.81;;;-0.20;100.00
19210;BME280;9738;51.654;14.238;2023-02-10T07:45:02;102375.97;;;-0.21;100.00
19210;BME280;9738;51.654;14.238;2023-02-10T07:47:28;102377.63;;;-0.17;100.00
19210;BME280;9738;51.654;14.238;2023-02-10T07:49:54;102380.31;;;-0.20;100.00
19210;BME280;9738;51.654;14.238;2023-02-10T07:52:21;102381.84;;;-0.10;100.00
19210;BME280;9738;51.654;14.238;2023-02-10T07:54:48;102383.50;;;-0.06;100.00
19210;BME280;9738;51.654;14.238;2023-02-10T07:57:15;102384.38;;;-0.07;100.00
19210;BME280;9738;51.654;14.238;2023-02-10T07:59:41;102375.69;;;-0.09;100.00
19210;BME280;9738;51.654;14.238;2023-02-10T08:02:09;102383.44;;;-0.03;100.00
19210;BME280;9738;51.654;14.238;2023-02-10T08:04:36;102384.03;;;0.09;100.00
19210;BME280;9738;51.654;14.238;2023-02-10T08:07:01;102382.47;;;0.02;100.00
19210;BME280;9738;51.654;14.238;2023-02-10T08:09:27;102372.09;;;-0.05;100.00
19210;BME280;9738;51.654;14.238;2023-02-10T08:11:53;102378.94;;;0.03;100.00
19210;BME280;9738;51.654;14.238;2023-02-10T08:14:19;102378.84;;;0.06;100.00
19210;BME280;9738;51.654;14.238;2023-02-10T08:16:45;102385.72;;;0.13;100.00
19210;BME280;9738;51.654;14.238;2023-02-10T08:19:12;102388.28;;;0.14;100.00
19210;BME280;9738;51.654;14.238;2023-02-10T08:21:37;102392.63;;;0.15;100.00
19210;BME280;9738;51.654;14.238;2023-02-10T08:24:03;102390.78;;;0.19;100.00
19210;BME280;9738;51.654;14.238;2023-02-10T08:26:29;102384.72;;;0.17;100.00
19210;BME280;9738;51.654;14.238;2023-02-10T08:28:55;102397.84;;;0.17;100.00
19210;BME280;9738;51.654;14.238;2023-02-10T08:31:24;102400.53;;;0.15;100.00
19210;BME280;9738;51.654;14.238;2023-02-10T08:33:50;102399.72;;;0.12;100.00
19210;BME280;9738;51.654;14.238;2023-02-10T08:36:17;102397.94;;;0.12;100.00
19210;BME280;9738;51.654;14.238;2023-02-10T08:38:46;102407.47;;;0.18;100.00
19210;BME280;9738;51.654;14.238;2023-02-10T08:41:13;102412.59;;;0.22;100.00
19210;BME280;9738;51.654;14.238;2023-02-10T08:43:39;102411.66;;;0.26;100.00
19210;BME280;9738;51.654;14.238;2023-02-10T08:46:05;102401.03;;;0.30;100.00
19210;BME280;9738;51.654;14.238;2023-02-10T08:48:32;102403.47;;;0.39;100.00
19210;BME280;9738;51.654;14.238;2023-02-10T08:50:58;102399.63;;;0.50;100.00
19210;BME280;9738;51.654;14.238;2023-02-10T08:53:24;102407.19;;;0.64;100.00
19210;BME280;9738;51.654;14.238;2023-02-10T08:56:02;102399.84;;;0.77;100.00
19210;BME280;9738;51.654;14.238;2023-02-10T08:58:29;102410.78;;;0.94;100.00
19210;BME280;9738;51.654;14.238;2023-02-10T09:00:55;102412.13;;;1.09;100.00
19210;BME280;9738;51.654;14.238;2023-02-10T09:03:21;102406.59;;;1.18;100.00
19210;BME280;9738;51.654;14.238;2023-02-10T09:05:47;102399.28;;;1.29;100.00
19210;BME280;9738;51.654;14.238;2023-02-10T09:08:16;102403.34;;;1.41;100.00
19210;BME280;9738;51.654;14.238;2023-02-10T09:10:43;102388.56;;;1.35;100.00
19210;BME280;9738;51.654;14.238;2023-02-10T09:13:09;102398.81;;;1.45;100.00
19210;BME280;9738;51.654;14.238;2023-02-10T09:15:37;102392.47;;;1.52;100.00
19210;BME280;9738;51.654;14.238;2023-02-10T09:18:04;102385.16;;;1.61;100.00
19210;BME280;9738;51.654;14.238;2023-02-10T09:20:30;102396.13;;;1.76;100.00
19210;BME280;9738;51.654;14.238;2023-02-10T09:22:56;102393.94;;;1.90;100.00
19210;BME280;9738;51.654;14.238;2023-02-10T09:25:22;102400.78;;;1.96;100.00
19210;BME280;9738;51.654;14.238;2023-02-10T09:27:48;102395.28;;;2.03;100.00
19210;BME280;9738;51.654;14.238;2023-02-10T09:30:14;102403.75;;;2.13;100.00
19210;BME280;9738;51.654;14.238;2023-02-10T09:32:40;102417.81;;;2.13;100.00
19210;BME280;9738;51.654;14.238;2023-02-10T09:35:06;102405.22;;;2.23;100.00
19210;BME280;9738;51.654;14.238;2023-02-10T09:37:32;102411.88;;;2.33;100.00
19210;BME280;9738;51.654;14.238;2023-02-10T09:39:58;102403.06;;;2.34;100.00
19210;BME280;9738;51.654;14.238;2023-02-10T09:42:44;102400.63;;;2.28;100.00
19210;BME280;9738;51.654;14.238;2023-02-10T09:45:18;102402.00;;;2.40;100.00
19210;BME280;9738;51.654;14.238;2023-02-10T09:47:51;102396.22;;;2.55;100.00
19210;BME280;9738;51.654;14.238;2023-02-10T09:50:34;102396.56;;;2.71;100.00
19210;BME280;9738;51.654;14.238;2023-02-10T09:53:12;102396.34;;;2.77;100.00
19210;BME280;9738;51.654;14.238;2023-02-10T09:55:45;102411.31;;;2.77;100.00
19210;BME280;9738;51.654;14.238;2023-02-10T09:58:19;102402.81;;;2.93;100.00
19210;BME280;9738;51.654;14.238;2023-02-10T10:00:52;102403.34;;;3.03;100.00
19210;BME280;9738;51.654;14.238;2023-02-10T10:03:26;102409.69;;;2.97;100.00
19210;BME280;9738;51.654;14.238;2023-02-10T10:06:04;102413.47;;;2.90;100.00
19210;BME280;9738;51.654;14.238;2023-02-10T10:11:14;102412.72;;;3.12;100.00
19210;BME280;9738;51.654;14.238;2023-02-10T10:13:42;102413.75;;;3.08;100.00
19210;BME280;9738;51.654;14.238;2023-02-10T10:16:38;102409.16;;;3.13;100.00
19210;BME280;9738;51.654;14.238;2023-02-10T10:19:17;102417.66;;;3.21;100.00
19210;BME280;9738;51.654;14.238;2023-02-10T10:22:02;102425.06;;;3.35;99.93
19210;BME280;9738;51.654;14.238;2023-02-10T10:25:11;102416.53;;;3.51;98.02
19210;BME280;9738;51.654;14.238;2023-02-10T10:30:45;102425.09;;;3.58;97.71
19210;BME280;9738;51.654;14.238;2023-02-10T10:35:55;102434.03;;;3.77;96.71
19210;BME280;9738;51.654;14.238;2023-02-10T10:38:42;102434.03;;;3.77;95.43
19210;BME280;9738;51.654;14.238;2023-02-10T10:41:12;102436.13;;;3.69;95.58
19210;BME280;9738;51.654;14.238;2023-02-10T10:43:49;102434.28;;;3.71;95.53
19210;BME280;9738;51.654;14.238;2023-02-10T10:46:23;102430.22;;;3.63;94.98
19210;BME280;9738;51.654;14.238;2023-02-10T10:48:52;102429.00;;;3.71;96.35
19210;BME280;9738;51.654;14.238;2023-02-10T10:51:18;102430.72;;;3.72;94.69
19210;BME280;9738;51.654;14.238;2023-02-10T10:53:50;102428.47;;;3.62;95.42
19210;BME280;9738;51.654;14.238;2023-02-10T10:56:41;102428.44;;;3.63;95.65
19210;BME280;9738;51.654;14.238;2023-02-10T10:59:25;102437.88;;;3.69;95.66
19210;BME280;9738;51.654;14.238;2023-02-10T11:01:53;102427.97;;;3.75;95.46
19210;BME280;9738;51.654;14.238;2023-02-10T11:04:21;102424.66;;;3.69;94.87
19210;BME280;9738;51.654;14.238;2023-02-10T11:06:52;102427.50;;;3.64;94.56
19210;BME280;9738;51.654;14.238;2023-02-10T11:09:31;102426.03;;;3.57;95.02
19210;BME280;9738;51.654;14.238;2023-02-10T11:12:15;102427.84;;;3.55;95.93
19210;BME280;9738;51.654;14.238;2023-02-10T11:14:45;102424.41;;;3.53;96.05
19210;BME280;9738;51.654;14.238;2023-02-10T11:17:24;102426.97;;;3.55;96.77
19210;BME280;9738;51.654;14.238;2023-02-10T11:20:39;102423.47;;;3.54;96.54
19210;BME280;9738;51.654;14.238;2023-02-10T11:23:02;102420.97;;;3.51;96.01
19210;BME280;9738;51.654;14.238;2023-02-10T11:25:33;102422.91;;;3.46;96.28
19210;BME280;9738;51.654;14.238;2023-02-10T11:28:00;102434.63;;;3.39;96.62
19210;BME280;9738;51.654;14.238;2023-02-10T11:30:36;102442.13;;;3.26;96.64
19210;BME280;9738;51.654;14.238;2023-02-10T11:33:04;102439.31;;;3.31;97.72
19210;BME280;9738;51.654;14.238;2023-02-10T11:35:31;102429.66;;;3.30;97.46
19210;BME280;9738;51.654;14.238;2023-02-10T11:38:05;102426.91;;;3.33;97.92
19210;BME280;9738;51.654;14.238;2023-02-10T11:40:55;102427.84;;;3.32;96.73
19210;BME280;9738;51.654;14.238;2023-02-10T11:43:35;102425.38;;;3.27;97.13
19210;BME280;9738;51.654;14.238;2023-02-10T11:46:05;102422.59;;;3.30;97.52
19210;BME280;9738;51.654;14.238;2023-02-10T11:48:31;102426.91;;;3.33;97.08
19210;BME280;9738;51.654;14.238;2023-02-10T11:51:23;102434.91;;;3.31;97.27
19210;BME280;9738;51.654;14.238;2023-02-10T11:53:51;102433.00;;;3.35;97.45
19210;BME280;9738;51.654;14.238;2023-02-10T11:56:25;102430.34;;;3.35;97.59
19210;BME280;9738;51.654;14.238;2023-02-10T11:59:26;102425.72;;;3.41;97.12
19210;BME280;9738;51.654;14.238;2023-02-10T12:05:04;102419.06;;;3.55;97.37
19210;BME280;9738;51.654;14.238;2023-02-10T12:07:51;102417.00;;;3.63;96.56
19210;BME280;9738;51.654;14.238;2023-02-10T12:10:29;102420.91;;;3.52;96.30
19210;BME280;9738;51.654;14.238;2023-02-10T12:15:55;102413.59;;;3.36;98.16
19210;BME280;9738;51.654;14.238;2023-02-10T12:18:40;102411.78;;;3.38;98.90
19210;BME280;9738;51.654;14.238;2023-02-10T12:21:38;102414.50;;;3.35;98.31
19210;BME280;9738;51.654;14.238;2023-02-10T12:26:55;102404.72;;;3.38;98.15
19210;BME280;9738;51.654;14.238;2023-02-10T12:29:32;102410.91;;;3.37;98.24
19210;BME280;9738;51.654;14.238;2023-02-10T12:32:26;102407.38;;;3.37;98.14
19210;BME280;9738;51.654;14.238;2023-02-10T12:35:11;102404.06;;;3.55;98.34
19210;BME280;9738;51.654;14.238;2023-02-10T12:37:58;102400.09;;;3.67;97.33
19210;BME280;9738;51.654;14.238;2023-02-10T12:46:35;102390.31;;;3.69;96.91
19210;BME280;9738;51.654;14.238;2023-02-10T12:49:17;102384.69;;;3.78;97.07
19210;BME280;9738;51.654;14.238;2023-02-10T12:51:56;102381.75;;;3.86;95.23
19210;BME280;9738;51.654;14.238;2023-02-10T12:54:30;102382.75;;;3.82;95.62
19210;BME280;9738;51.654;14.238;2023-02-10T12:57:10;102384.13;;;3.70;95.77
19210;BME280;9738;51.654;14.238;2023-02-10T12:59:47;102378.09;;;3.66;97.32
19210;BME280;9738;51.654;14.238;2023-02-10T13:02:19;102371.31;;;3.59;97.51
19210;BME280;9738;51.654;14.238;2023-02-10T13:04:53;102375.09;;;3.75;97.96
19210;BME280;9738;51.654;14.238;2023-02-10T13:07:53;102367.97;;;3.77;97.83
19210;BME280;9738;51.654;14.238;2023-02-10T13:12:53;102373.28;;;3.54;98.84
19210;BME280;9738;51.654;14.238;2023-02-10T13:15:25;102378.22;;;3.63;99.41
19210;BME280;9738;51.654;14.238;2023-02-10T13:17:53;102374.66;;;3.64;99.04
19210;BME280;9738;51.654;14.238;2023-02-10T13:20:59;102378.53;;;3.77;99.70
19210;BME280;9738;51.654;14.238;2023-02-10T13:23:37;102381.38;;;3.95;98.33
19210;BME280;9738;51.654;14.238;2023-02-10T13:29:59;102372.41;;;3.99;97.63
19210;BME280;9738;51.654;14.238;2023-02-10T13:34:55;102385.25;;;4.08;96.11
19210;BME280;9738;51.654;14.238;2023-02-10T13:37:42;102373.94;;;3.83;96.93
19210;BME280;9738;51.654;14.238;2023-02-10T13:40:20;102383.03;;;3.75;98.31
19210;BME280;9738;51.654;14.238;2023-02-10T13:45:25;102375.63;;;3.62;99.67
19210;BME280;9738;51.654;14.238;2023-02-10T13:47:57;102375.38;;;3.68;99.20
19210;BME280;9738;51.654;14.238;2023-02-10T13:50:30;102372.34;;;3.78;99.06
19210;BME280;9738;51.654;14.238;2023-02-10T13:53:03;102378.31;;;3.84;98.16
19210;BME280;9738;51.654;14.238;2023-02-10T14:11:29;102367.03;;;3.78;99.44